sensor_id;sensor_type;location;lat;lon;timestamp;P1;durP1;ratioP1;P2;durP2;ratioP2
18336;SDS011;9294;51.106;7.028;2023-02-04T00:01:55;3.28;;;2.30;;
18336;SDS011;9294;51.106;7.028;2023-02-04T00:04:22;2.30;;;2.10;;
18336;SDS011;9294;51.106;7.028;2023-02-04T00:06:50;3.38;;;2.13;;
18336;SDS011;9294;51.106;7.028;2023-02-04T00:09:16;3.35;;;2.60;;
18336;SDS011;9294;51.106;7.028;2023-02-04T00:11:43;2.47;;;1.90;;
18336;SDS011;9294;51.106;7.028;2023-02-04T00:14:10;3.15;;;2.60;;
18336;SDS011;9294;51.106;7.028;2023-02-04T00:16:37;2.30;;;2.10;;
18336;SDS011;9294;51.106;7.028;2023-02-04T00:19:03;3.80;;;2.70;;
18336;SDS011;9294;51.106;7.028;2023-02-04T00:21:30;3.63;;;2.38;;
18336;SDS011;9294;51.106;7.028;2023-02-04T00:23:58;2.30;;;2.08;;
18336;SDS011;9294;51.106;7.028;2023-02-04T00:26:25;2.78;;;2.30;;
18336;SDS011;9294;51.106;7.028;2023-02-04T00:28:51;3.22;;;2.20;;
18336;SDS011;9294;51.106;7.028;2023-02-04T00:31:18;2.50;;;2.20;;
18336;SDS011;9294;51.106;7.028;2023-02-04T00:33:45;2.25;;;2.10;;
18336;SDS011;9294;51.106;7.028;2023-02-04T00:36:11;4.07;;;2.25;;
18336;SDS011;9294;51.106;7.028;2023-02-04T00:38:38;2.50;;;2.30;;
18336;SDS011;9294;51.106;7.028;2023-02-04T00:41:06;2.40;;;2.20;;
18336;SDS011;9294;51.106;7.028;2023-02-04T00:43:33;3.38;;;2.05;;
18336;SDS011;9294;51.106;7.028;2023-02-04T00:45:59;2.83;;;2.22;;
18336;SDS011;9294;51.106;7.028;2023-02-04T00:48:26;3.08;;;2.20;;
18336;SDS011;9294;51.106;7.028;2023-02-04T00:50:53;3.15;;;2.40;;
18336;SDS011;9294;51.106;7.028;2023-02-04T00:53:20;2.58;;;2.30;;
18336;SDS011;9294;51.106;7.028;2023-02-04T00:55:46;1.90;;;1.80;;
18336;SDS011;9294;51.106;7.028;2023-02-04T00:58:14;2.88;;;2.60;;
18336;SDS011;9294;51.106;7.028;2023-02-04T01:00:41;3.10;;;2.10;;
18336;SDS011;9294;51.106;7.028;2023-02-04T01:03:08;2.55;;;2.10;;
18336;SDS011;9294;51.106;7.028;2023-02-04T01:05:36;2.78;;;2.20;;
18336;SDS011;9294;51.106;7.028;2023-02-04T01:08:03;2.85;;;2.00;;
18336;SDS011;9294;51.106;7.028;2023-02-04T01:10:29;2.60;;;2.20;;
18336;SDS011;9294;51.106;7.028;2023-02-04T01:12:56;3.05;;;2.15;;
18336;SDS011;9294;51.106;7.028;2023-02-04T01:15:24;2.65;;;1.77;;
18336;SDS011;9294;51.106;7.028;2023-02-04T01:17:51;2.78;;;2.42;;
18336;SDS011;9294;51.106;7.028;2023-02-04T01:20:18;3.20;;;2.42;;
18336;SDS011;9294;51.106;7.028;2023-02-04T01:22:45;4.75;;;2.47;;
18336;SDS011;9294;51.106;7.028;2023-02-04T01:25:11;2.35;;;2.25;;
18336;SDS011;9294;51.106;7.028;2023-02-04T01:27:38;2.45;;;2.25;;
18336;SDS011;9294;51.106;7.028;2023-02-04T01:30:05;3.05;;;2.35;;
18336;SDS011;9294;51.106;7.028;2023-02-04T01:32:34;2.67;;;2.15;;
18336;SDS011;9294;51.106;7.028;2023-02-04T01:35:01;2.38;;;1.98;;
18336;SDS011;9294;51.106;7.028;2023-02-04T01:37:28;2.90;;;2.70;;
18336;SDS011;9294;51.106;7.028;2023-02-04T01:39:54;3.13;;;2.28;;
18336;SDS011;9294;51.106;7.028;2023-02-04T01:42:22;2.50;;;2.30;;
18336;SDS011;9294;51.106;7.028;2023-02-04T01:44:49;2.30;;;2.10;;
18336;SDS011;9294;51.106;7.028;2023-02-04T01:47:16;2.97;;;2.10;;
18336;SDS011;9294;51.106;7.028;2023-02-04T01:49:45;2.13;;;1.95;;
18336;SDS011;9294;51.106;7.028;2023-02-04T01:52:16;2.50;;;2.28;;
18336;SDS011;9294;51.106;7.028;2023-02-04T01:54:43;2.60;;;2.40;;
18336;SDS011;9294;51.106;7.028;2023-02-04T01:57:12;3.25;;;2.30;;
18336;SDS011;9294;51.106;7.028;2023-02-04T01:59:41;3.67;;;2.72;;
18336;SDS011;9294;51.106;7.028;2023-02-04T02:05:07;2.92;;;2.38;;
18336;SDS011;9294;51.106;7.028;2023-02-04T02:07:35;2.92;;;2.15;;
18336;SDS011;9294;51.106;7.028;2023-02-04T02:10:02;5.60;;;2.50;;
18336;SDS011;9294;51.106;7.028;2023-02-04T02:12:30;2.72;;;2.00;;
18336;SDS011;9294;51.106;7.028;2023-02-04T02:14:57;2.75;;;2.00;;
18336;SDS011;9294;51.106;7.028;2023-02-04T02:17:25;2.60;;;2.30;;
18336;SDS011;9294;51.106;7.028;2023-02-04T02:19:52;2.75;;;2.50;;
18336;SDS011;9294;51.106;7.028;2023-02-04T02:22:21;2.58;;;2.03;;
18336;SDS011;9294;51.106;7.028;2023-02-04T02:24:53;3.90;;;2.55;;
18336;SDS011;9294;51.106;7.028;2023-02-04T02:27:20;2.55;;;1.98;;
18336;SDS011;9294;51.106;7.028;2023-02-04T02:29:48;3.33;;;2.40;;
18336;SDS011;9294;51.106;7.028;2023-02-04T02:32:15;2.13;;;1.83;;
18336;SDS011;9294;51.106;7.028;2023-02-04T02:34:42;3.53;;;2.30;;
18336;SDS011;9294;51.106;7.028;2023-02-04T02:37:11;2.13;;;1.88;;
18336;SDS011;9294;51.106;7.028;2023-02-04T02:39:38;2.60;;;2.22;;
18336;SDS011;9294;51.106;7.028;2023-02-04T02:42:08;2.83;;;2.38;;
18336;SDS011;9294;51.106;7.028;2023-02-04T02:44:36;4.00;;;2.65;;
18336;SDS011;9294;51.106;7.028;2023-02-04T02:47:03;3.75;;;2.50;;
18336;SDS011;9294;51.106;7.028;2023-02-04T02:49:30;2.38;;;2.20;;
18336;SDS011;9294;51.106;7.028;2023-02-04T02:51:58;3.70;;;2.63;;
18336;SDS011;9294;51.106;7.028;2023-02-04T02:54:26;4.72;;;2.03;;
18336;SDS011;9294;51.106;7.028;2023-02-04T02:56:54;2.60;;;2.05;;
18336;SDS011;9294;51.106;7.028;2023-02-04T02:59:24;2.38;;;2.17;;
18336;SDS011;9294;51.106;7.028;2023-02-04T03:01:52;3.00;;;2.30;;
18336;SDS011;9294;51.106;7.028;2023-02-04T03:04:22;2.65;;;2.20;;
18336;SDS011;9294;51.106;7.028;2023-02-04T03:06:51;2.55;;;2.28;;
18336;SDS011;9294;51.106;7.028;2023-02-04T03:09:20;4.03;;;2.50;;
18336;SDS011;9294;51.106;7.028;2023-02-04T03:11:48;4.22;;;2.63;;
18336;SDS011;9294;51.106;7.028;2023-02-04T03:14:14;2.35;;;2.15;;
18336;SDS011;9294;51.106;7.028;2023-02-04T03:16:43;2.58;;;2.22;;
18336;SDS011;9294;51.106;7.028;2023-02-04T03:19:10;3.38;;;2.55;;
18336;SDS011;9294;51.106;7.028;2023-02-04T03:21:37;2.15;;;1.90;;
18336;SDS011;9294;51.106;7.028;2023-02-04T03:24:05;3.20;;;2.42;;
18336;SDS011;9294;51.106;7.028;2023-02-04T03:26:32;4.45;;;2.50;;
18336;SDS011;9294;51.106;7.028;2023-02-04T03:28:58;2.47;;;2.00;;
18336;SDS011;9294;51.106;7.028;2023-02-04T03:31:25;3.13;;;1.95;;
18336;SDS011;9294;51.106;7.028;2023-02-04T03:33:53;3.55;;;2.40;;
18336;SDS011;9294;51.106;7.028;2023-02-04T03:36:20;3.47;;;2.08;;
18336;SDS011;9294;51.106;7.028;2023-02-04T03:38:46;5.88;;;2.58;;
18336;SDS011;9294;51.106;7.028;2023-02-04T03:41:13;2.45;;;2.08;;
18336;SDS011;9294;51.106;7.028;2023-02-04T03:43:40;2.33;;;2.13;;
18336;SDS011;9294;51.106;7.028;2023-02-04T03:46:06;4.00;;;2.17;;
18336;SDS011;9294;51.106;7.028;2023-02-04T03:48:33;3.28;;;2.28;;
18336;SDS011;9294;51.106;7.028;2023-02-04T03:51:01;3.70;;;2.70;;
18336;SDS011;9294;51.106;7.028;2023-02-04T03:53:28;2.58;;;1.88;;
18336;SDS011;9294;51.106;7.028;2023-02-04T03:55:55;2.72;;;2.28;;
18336;SDS011;9294;51.106;7.028;2023-02-04T03:58:22;3.65;;;2.42;;
18336;SDS011;9294;51.106;7.028;2023-02-04T04:00:49;2.92;;;2.65;;
18336;SDS011;9294;51.106;7.028;2023-02-04T04:03:15;2.78;;;1.95;;
18336;SDS011;9294;51.106;7.028;2023-02-04T04:05:42;3.42;;;2.53;;
18336;SDS011;9294;51.106;7.028;2023-02-04T04:08:10;2.60;;;2.22;;
18336;SDS011;9294;51.106;7.028;2023-02-04T04:10:37;2.72;;;2.25;;
18336;SDS011;9294;51.106;7.028;2023-02-04T04:13:03;2.25;;;2.08;;
18336;SDS011;9294;51.106;7.028;2023-02-04T04:15:30;2.58;;;2.05;;
18336;SDS011;9294;51.106;7.028;2023-02-04T04:17:57;2.35;;;2.20;;
18336;SDS011;9294;51.106;7.028;2023-02-04T04:20:24;2.58;;;2.35;;
18336;SDS011;9294;51.106;7.028;2023-02-04T04:22:52;2.35;;;2.13;;
18336;SDS011;9294;51.106;7.028;2023-02-04T04:25:20;2.58;;;2.38;;
18336;SDS011;9294;51.106;7.028;2023-02-04T04:27:47;2.53;;;2.30;;
18336;SDS011;9294;51.106;7.028;2023-02-04T04:30:13;2.53;;;2.22;;
18336;SDS011;9294;51.106;7.028;2023-02-04T04:32:40;3.92;;;2.00;;
18336;SDS011;9294;51.106;7.028;2023-02-04T04:35:07;2.63;;;2.20;;
18336;SDS011;9294;51.106;7.028;2023-02-04T04:37:34;2.78;;;2.20;;
18336;SDS011;9294;51.106;7.028;2023-02-04T04:40:00;3.13;;;2.13;;
18336;SDS011;9294;51.106;7.028;2023-02-04T04:42:28;2.40;;;2.20;;
18336;SDS011;9294;51.106;7.028;2023-02-04T04:44:55;2.13;;;1.92;;
18336;SDS011;9294;51.106;7.028;2023-02-04T04:47:22;2.45;;;2.08;;
18336;SDS011;9294;51.106;7.028;2023-02-04T04:49:48;2.88;;;1.98;;
18336;SDS011;9294;51.106;7.028;2023-02-04T04:52:15;3.25;;;2.47;;
18336;SDS011;9294;51.106;7.028;2023-02-04T04:54:42;2.88;;;2.00;;
18336;SDS011;9294;51.106;7.028;2023-02-04T04:57:08;2.03;;;1.73;;
18336;SDS011;9294;51.106;7.028;2023-02-04T04:59:36;2.08;;;1.98;;
18336;SDS011;9294;51.106;7.028;2023-02-04T05:02:03;3.17;;;1.90;;
18336;SDS011;9294;51.106;7.028;2023-02-04T05:04:30;2.42;;;1.98;;
18336;SDS011;9294;51.106;7.028;2023-02-04T05:06:56;2.17;;;1.98;;
18336;SDS011;9294;51.106;7.028;2023-02-04T05:09:23;2.53;;;2.30;;
18336;SDS011;9294;51.106;7.028;2023-02-04T05:11:50;3.10;;;2.00;;
18336;SDS011;9294;51.106;7.028;2023-02-04T05:14:16;4.38;;;2.53;;
18336;SDS011;9294;51.106;7.028;2023-02-04T05:16:45;2.20;;;1.95;;
18336;SDS011;9294;51.106;7.028;2023-02-04T05:19:11;3.15;;;2.40;;
18336;SDS011;9294;51.106;7.028;2023-02-04T05:21:38;3.35;;;2.10;;
18336;SDS011;9294;51.106;7.028;2023-02-04T05:24:05;3.88;;;2.28;;
18336;SDS011;9294;51.106;7.028;2023-02-04T05:26:32;3.08;;;2.47;;
18336;SDS011;9294;51.106;7.028;2023-02-04T05:28:58;3.22;;;2.17;;
18336;SDS011;9294;51.106;7.028;2023-02-04T05:31:25;3.70;;;2.67;;
18336;SDS011;9294;51.106;7.028;2023-02-04T05:33:53;2.22;;;2.03;;
18336;SDS011;9294;51.106;7.028;2023-02-04T05:36:20;3.15;;;2.38;;
18336;SDS011;9294;51.106;7.028;2023-02-04T05:38:47;2.78;;;1.80;;
18336;SDS011;9294;51.106;7.028;2023-02-04T05:41:13;4.22;;;2.55;;
18336;SDS011;9294;51.106;7.028;2023-02-04T05:43:40;3.00;;;2.20;;
18336;SDS011;9294;51.106;7.028;2023-02-04T05:46:07;2.35;;;2.10;;
18336;SDS011;9294;51.106;7.028;2023-02-04T05:48:33;4.55;;;2.42;;
18336;SDS011;9294;51.106;7.028;2023-02-04T05:51:01;2.00;;;1.80;;
18336;SDS011;9294;51.106;7.028;2023-02-04T05:53:28;2.47;;;2.25;;
18336;SDS011;9294;51.106;7.028;2023-02-04T05:55:55;3.47;;;2.67;;
18336;SDS011;9294;51.106;7.028;2023-02-04T05:58:22;3.63;;;2.33;;
18336;SDS011;9294;51.106;7.028;2023-02-04T06:00:48;3.53;;;2.10;;
18336;SDS011;9294;51.106;7.028;2023-02-04T06:03:15;3.08;;;2.47;;
18336;SDS011;9294;51.106;7.028;2023-02-04T06:05:43;3.45;;;2.45;;
18336;SDS011;9294;51.106;7.028;2023-02-04T06:08:11;3.13;;;2.35;;
18336;SDS011;9294;51.106;7.028;2023-02-04T06:10:39;2.58;;;2.22;;
18336;SDS011;9294;51.106;7.028;2023-02-04T06:13:06;2.35;;;2.08;;
18336;SDS011;9294;51.106;7.028;2023-02-04T06:15:33;3.30;;;2.00;;
18336;SDS011;9294;51.106;7.028;2023-02-04T06:18:00;3.13;;;2.00;;
18336;SDS011;9294;51.106;7.028;2023-02-04T06:20:26;2.22;;;2.03;;
18336;SDS011;9294;51.106;7.028;2023-02-04T06:22:53;3.67;;;2.13;;
18336;SDS011;9294;51.106;7.028;2023-02-04T06:25:21;3.60;;;2.10;;
18336;SDS011;9294;51.106;7.028;2023-02-04T06:27:48;1.77;;;1.40;;
18336;SDS011;9294;51.106;7.028;2023-02-04T06:30:16;2.67;;;2.47;;
18336;SDS011;9294;51.106;7.028;2023-02-04T06:32:43;1.98;;;1.75;;
18336;SDS011;9294;51.106;7.028;2023-02-04T06:35:10;4.95;;;2.17;;
18336;SDS011;9294;51.106;7.028;2023-02-04T06:37:37;1.73;;;1.50;;
18336;SDS011;9294;51.106;7.028;2023-02-04T06:40:04;5.82;;;2.20;;
18336;SDS011;9294;51.106;7.028;2023-02-04T06:42:34;2.42;;;2.22;;
18336;SDS011;9294;51.106;7.028;2023-02-04T06:45:00;2.10;;;1.98;;
18336;SDS011;9294;51.106;7.028;2023-02-04T06:47:27;2.65;;;1.88;;
18336;SDS011;9294;51.106;7.028;2023-02-04T06:49:54;2.05;;;1.75;;
18336;SDS011;9294;51.106;7.028;2023-02-04T06:52:21;2.05;;;1.90;;
18336;SDS011;9294;51.106;7.028;2023-02-04T06:54:47;1.95;;;1.80;;
18336;SDS011;9294;51.106;7.028;2023-02-04T06:57:14;3.25;;;2.20;;
18336;SDS011;9294;51.106;7.028;2023-02-04T06:59:42;1.95;;;1.83;;
18336;SDS011;9294;51.106;7.028;2023-02-04T07:02:11;3.45;;;2.30;;
18336;SDS011;9294;51.106;7.028;2023-02-04T07:04:37;2.30;;;1.85;;
18336;SDS011;9294;51.106;7.028;2023-02-04T07:07:04;3.80;;;2.20;;
18336;SDS011;9294;51.106;7.028;2023-02-04T07:09:31;3.90;;;2.08;;
18336;SDS011;9294;51.106;7.028;2023-02-04T07:11:57;5.28;;;2.03;;
18336;SDS011;9294;51.106;7.028;2023-02-04T07:14:24;4.50;;;2.38;;
18336;SDS011;9294;51.106;7.028;2023-02-04T07:16:52;2.38;;;1.70;;
18336;SDS011;9294;51.106;7.028;2023-02-04T07:19:19;4.80;;;2.10;;
18336;SDS011;9294;51.106;7.028;2023-02-04T07:21:46;2.88;;;1.88;;
18336;SDS011;9294;51.106;7.028;2023-02-04T07:24:13;3.95;;;2.03;;
18336;SDS011;9294;51.106;7.028;2023-02-04T07:26:39;4.43;;;2.10;;
18336;SDS011;9294;51.106;7.028;2023-02-04T07:29:06;4.88;;;2.17;;
18336;SDS011;9294;51.106;7.028;2023-02-04T07:31:33;3.90;;;2.33;;
18336;SDS011;9294;51.106;7.028;2023-02-04T07:34:01;3.08;;;2.30;;
18336;SDS011;9294;51.106;7.028;2023-02-04T07:36:27;2.60;;;2.30;;
18336;SDS011;9294;51.106;7.028;2023-02-04T07:38:54;3.00;;;2.15;;
18336;SDS011;9294;51.106;7.028;2023-02-04T07:41:21;2.78;;;1.90;;
18336;SDS011;9294;51.106;7.028;2023-02-04T07:43:47;2.80;;;2.25;;
18336;SDS011;9294;51.106;7.028;2023-02-04T07:46:14;2.75;;;2.22;;
18336;SDS011;9294;51.106;7.028;2023-02-04T07:48:41;3.80;;;2.08;;
18336;SDS011;9294;51.106;7.028;2023-02-04T07:51:09;4.47;;;1.80;;
18336;SDS011;9294;51.106;7.028;2023-02-04T07:53:36;3.60;;;2.33;;
18336;SDS011;9294;51.106;7.028;2023-02-04T07:56:03;3.53;;;1.98;;
18336;SDS011;9294;51.106;7.028;2023-02-04T07:58:30;3.03;;;2.03;;
18336;SDS011;9294;51.106;7.028;2023-02-04T08:00:57;2.30;;;1.75;;
18336;SDS011;9294;51.106;7.028;2023-02-04T08:03:23;3.92;;;2.10;;
18336;SDS011;9294;51.106;7.028;2023-02-04T08:05:50;4.07;;;2.45;;
18336;SDS011;9294;51.106;7.028;2023-02-04T08:08:18;4.65;;;2.25;;
18336;SDS011;9294;51.106;7.028;2023-02-04T08:10:45;5.47;;;2.38;;
18336;SDS011;9294;51.106;7.028;2023-02-04T08:13:12;7.50;;;2.50;;
18336;SDS011;9294;51.106;7.028;2023-02-04T08:15:39;5.78;;;2.80;;
18336;SDS011;9294;51.106;7.028;2023-02-04T08:18:06;4.80;;;2.78;;
18336;SDS011;9294;51.106;7.028;2023-02-04T08:20:33;3.55;;;2.08;;
18336;SDS011;9294;51.106;7.028;2023-02-04T08:23:00;7.60;;;2.67;;
18336;SDS011;9294;51.106;7.028;2023-02-04T08:25:28;6.25;;;3.03;;
18336;SDS011;9294;51.106;7.028;2023-02-04T08:27:55;5.68;;;2.38;;
18336;SDS011;9294;51.106;7.028;2023-02-04T08:30:22;9.55;;;3.50;;
18336;SDS011;9294;51.106;7.028;2023-02-04T08:32:48;9.75;;;2.65;;
18336;SDS011;9294;51.106;7.028;2023-02-04T08:35:15;4.97;;;2.55;;
18336;SDS011;9294;51.106;7.028;2023-02-04T08:37:42;5.20;;;2.78;;
18336;SDS011;9294;51.106;7.028;2023-02-04T08:40:09;3.65;;;1.98;;
18336;SDS011;9294;51.106;7.028;2023-02-04T08:42:38;5.65;;;2.85;;
18336;SDS011;9294;51.106;7.028;2023-02-04T08:45:05;6.03;;;2.75;;
18336;SDS011;9294;51.106;7.028;2023-02-04T08:47:32;5.13;;;2.38;;
18336;SDS011;9294;51.106;7.028;2023-02-04T08:49:59;4.82;;;2.55;;
18336;SDS011;9294;51.106;7.028;2023-02-04T08:52:25;6.22;;;2.50;;
18336;SDS011;9294;51.106;7.028;2023-02-04T08:54:52;6.63;;;2.92;;
18336;SDS011;9294;51.106;7.028;2023-02-04T08:57:19;3.05;;;2.40;;
18336;SDS011;9294;51.106;7.028;2023-02-04T08:59:47;3.80;;;2.47;;
18336;SDS011;9294;51.106;7.028;2023-02-04T09:02:14;3.35;;;2.38;;
18336;SDS011;9294;51.106;7.028;2023-02-04T09:04:41;5.68;;;2.88;;
18336;SDS011;9294;51.106;7.028;2023-02-04T09:07:08;4.65;;;2.30;;
18336;SDS011;9294;51.106;7.028;2023-02-04T09:09:35;5.63;;;2.40;;
18336;SDS011;9294;51.106;7.028;2023-02-04T09:12:02;5.68;;;2.40;;
18336;SDS011;9294;51.106;7.028;2023-02-04T09:14:28;6.70;;;2.72;;
18336;SDS011;9294;51.106;7.028;2023-02-04T09:16:56;5.68;;;2.38;;
18336;SDS011;9294;51.106;7.028;2023-02-04T09:19:23;4.55;;;2.13;;
18336;SDS011;9294;51.106;7.028;2023-02-04T09:21:51;4.88;;;3.03;;
18336;SDS011;9294;51.106;7.028;2023-02-04T09:24:18;4.10;;;2.30;;
18336;SDS011;9294;51.106;7.028;2023-02-04T09:26:47;3.00;;;1.92;;
18336;SDS011;9294;51.106;7.028;2023-02-04T09:29:14;3.97;;;2.17;;
18336;SDS011;9294;51.106;7.028;2023-02-04T09:31:41;6.57;;;2.35;;
18336;SDS011;9294;51.106;7.028;2023-02-04T09:34:09;4.28;;;2.33;;
18336;SDS011;9294;51.106;7.028;2023-02-04T09:36:35;5.38;;;2.90;;
18336;SDS011;9294;51.106;7.028;2023-02-04T09:39:03;9.93;;;2.55;;
18336;SDS011;9294;51.106;7.028;2023-02-04T09:41:31;3.58;;;2.60;;
18336;SDS011;9294;51.106;7.028;2023-02-04T09:43:58;3.60;;;2.38;;
18336;SDS011;9294;51.106;7.028;2023-02-04T09:46:25;6.25;;;2.20;;
18336;SDS011;9294;51.106;7.028;2023-02-04T09:48:54;7.07;;;2.38;;
18336;SDS011;9294;51.106;7.028;2023-02-04T09:51:24;4.45;;;2.58;;
18336;SDS011;9294;51.106;7.028;2023-02-04T09:53:53;6.00;;;2.60;;
18336;SDS011;9294;51.106;7.028;2023-02-04T09:56:27;3.08;;;2.40;;
18336;SDS011;9294;51.106;7.028;2023-02-04T09:58:55;3.20;;;2.47;;
18336;SDS011;9294;51.106;7.028;2023-02-04T10:01:22;3.40;;;2.05;;
18336;SDS011;9294;51.106;7.028;2023-02-04T10:03:49;4.35;;;2.90;;
18336;SDS011;9294;51.106;7.028;2023-02-04T10:06:16;4.28;;;2.45;;
18336;SDS011;9294;51.106;7.028;2023-02-04T10:08:46;2.83;;;2.33;;
18336;SDS011;9294;51.106;7.028;2023-02-04T10:11:15;3.35;;;2.40;;
18336;SDS011;9294;51.106;7.028;2023-02-04T10:13:45;4.30;;;2.67;;
18336;SDS011;9294;51.106;7.028;2023-02-04T10:16:15;2.75;;;2.05;;
18336;SDS011;9294;51.106;7.028;2023-02-04T10:18:43;4.07;;;2.17;;
18336;SDS011;9294;51.106;7.028;2023-02-04T10:21:11;4.40;;;2.60;;
18336;SDS011;9294;51.106;7.028;2023-02-04T10:23:42;8.82;;;2.72;;
18336;SDS011;9294;51.106;7.028;2023-02-04T10:26:13;5.80;;;2.40;;
18336;SDS011;9294;51.106;7.028;2023-02-04T10:28:41;5.78;;;2.63;;
18336;SDS011;9294;51.106;7.028;2023-02-04T10:34:01;4.75;;;2.92;;
18336;SDS011;9294;51.106;7.028;2023-02-04T10:36:29;4.68;;;2.55;;
18336;SDS011;9294;51.106;7.028;2023-02-04T10:38:59;6.82;;;3.50;;
18336;SDS011;9294;51.106;7.028;2023-02-04T10:41:28;5.55;;;2.70;;
18336;SDS011;9294;51.106;7.028;2023-02-04T10:44:02;7.18;;;3.15;;
18336;SDS011;9294;51.106;7.028;2023-02-04T10:46:30;12.00;;;3.70;;
18336;SDS011;9294;51.106;7.028;2023-02-04T10:48:57;9.32;;;5.55;;
18336;SDS011;9294;51.106;7.028;2023-02-04T10:51:24;12.27;;;6.03;;
18336;SDS011;9294;51.106;7.028;2023-02-04T10:53:51;11.98;;;8.68;;
18336;SDS011;9294;51.106;7.028;2023-02-04T10:56:37;15.73;;;10.15;;
18336;SDS011;9294;51.106;7.028;2023-02-04T10:59:04;13.23;;;10.40;;
18336;SDS011;9294;51.106;7.028;2023-02-04T11:01:31;16.05;;;11.70;;
18336;SDS011;9294;51.106;7.028;2023-02-04T11:03:58;16.00;;;11.38;;
18336;SDS011;9294;51.106;7.028;2023-02-04T11:06:25;15.73;;;11.80;;
18336;SDS011;9294;51.106;7.028;2023-02-04T11:08:52;20.30;;;14.00;;
18336;SDS011;9294;51.106;7.028;2023-02-04T11:11:20;21.02;;;14.50;;
18336;SDS011;9294;51.106;7.028;2023-02-04T11:13:58;19.90;;;15.25;;
18336;SDS011;9294;51.106;7.028;2023-02-04T11:16:27;20.92;;;14.50;;
18336;SDS011;9294;51.106;7.028;2023-02-04T11:18:57;20.58;;;14.10;;
18336;SDS011;9294;51.106;7.028;2023-02-04T11:21:26;18.55;;;14.10;;
18336;SDS011;9294;51.106;7.028;2023-02-04T11:24:05;20.35;;;13.57;;
18336;SDS011;9294;51.106;7.028;2023-02-04T11:26:46;17.60;;;13.57;;
18336;SDS011;9294;51.106;7.028;2023-02-04T11:29:28;17.60;;;13.23;;
18336;SDS011;9294;51.106;7.028;2023-02-04T11:32:03;16.80;;;12.65;;
18336;SDS011;9294;51.106;7.028;2023-02-04T11:34:42;18.13;;;13.05;;
18336;SDS011;9294;51.106;7.028;2023-02-04T11:37:15;16.40;;;12.02;;
18336;SDS011;9294;51.106;7.028;2023-02-04T11:39:57;15.23;;;12.02;;
18336;SDS011;9294;51.106;7.028;2023-02-04T11:42:29;15.82;;;11.40;;
18336;SDS011;9294;51.106;7.028;2023-02-04T11:44:59;15.30;;;11.45;;
18336;SDS011;9294;51.106;7.028;2023-02-04T11:47:33;14.65;;;11.02;;
18336;SDS011;9294;51.106;7.028;2023-02-04T11:50:02;17.13;;;11.02;;
18336;SDS011;9294;51.106;7.028;2023-02-04T11:52:36;14.93;;;10.45;;
18336;SDS011;9294;51.106;7.028;2023-02-04T11:55:03;12.50;;;9.68;;
18336;SDS011;9294;51.106;7.028;2023-02-04T11:57:36;14.68;;;9.43;;
18336;SDS011;9294;51.106;7.028;2023-02-04T12:00:10;10.43;;;8.82;;
18336;SDS011;9294;51.106;7.028;2023-02-04T12:02:40;10.82;;;8.30;;
18336;SDS011;9294;51.106;7.028;2023-02-04T12:05:10;11.77;;;8.38;;
18336;SDS011;9294;51.106;7.028;2023-02-04T12:07:38;12.00;;;8.40;;
18336;SDS011;9294;51.106;7.028;2023-02-04T12:10:12;11.60;;;8.45;;
18336;SDS011;9294;51.106;7.028;2023-02-04T12:12:48;10.68;;;7.53;;
18336;SDS011;9294;51.106;7.028;2023-02-04T12:15:20;12.00;;;7.78;;
18336;SDS011;9294;51.106;7.028;2023-02-04T12:17:59;11.70;;;6.88;;
18336;SDS011;9294;51.106;7.028;2023-02-04T12:20:26;10.43;;;7.28;;
18336;SDS011;9294;51.106;7.028;2023-02-04T12:22:53;15.68;;;7.43;;
18336;SDS011;9294;51.106;7.028;2023-02-04T12:25:20;10.75;;;7.43;;
18336;SDS011;9294;51.106;7.028;2023-02-04T12:27:47;10.18;;;7.20;;
18336;SDS011;9294;51.106;7.028;2023-02-04T12:30:14;10.07;;;6.72;;
18336;SDS011;9294;51.106;7.028;2023-02-04T12:32:43;12.05;;;6.75;;
18336;SDS011;9294;51.106;7.028;2023-02-04T12:35:10;9.52;;;6.55;;
18336;SDS011;9294;51.106;7.028;2023-02-04T12:37:37;11.18;;;6.93;;
18336;SDS011;9294;51.106;7.028;2023-02-04T12:40:04;11.30;;;7.15;;
18336;SDS011;9294;51.106;7.028;2023-02-04T12:42:31;9.93;;;6.80;;
18336;SDS011;9294;51.106;7.028;2023-02-04T12:44:58;9.90;;;7.00;;
18336;SDS011;9294;51.106;7.028;2023-02-04T12:47:25;9.35;;;6.13;;
18336;SDS011;9294;51.106;7.028;2023-02-04T12:49:53;10.10;;;6.70;;
18336;SDS011;9294;51.106;7.028;2023-02-04T12:52:19;6.78;;;6.03;;
18336;SDS011;9294;51.106;7.028;2023-02-04T12:54:47;8.60;;;5.28;;
18336;SDS011;9294;51.106;7.028;2023-02-04T12:57:14;8.90;;;6.18;;
18336;SDS011;9294;51.106;7.028;2023-02-04T12:59:43;9.35;;;6.38;;
18336;SDS011;9294;51.106;7.028;2023-02-04T13:02:10;10.13;;;6.07;;
18336;SDS011;9294;51.106;7.028;2023-02-04T13:04:37;6.32;;;5.50;;
18336;SDS011;9294;51.106;7.028;2023-02-04T13:07:06;8.43;;;5.72;;
18336;SDS011;9294;51.106;7.028;2023-02-04T13:09:33;8.30;;;5.68;;
18336;SDS011;9294;51.106;7.028;2023-02-04T13:12:01;8.57;;;5.70;;
18336;SDS011;9294;51.106;7.028;2023-02-04T13:14:27;9.07;;;5.65;;
18336;SDS011;9294;51.106;7.028;2023-02-04T13:16:56;6.80;;;5.60;;
18336;SDS011;9294;51.106;7.028;2023-02-04T13:19:23;5.32;;;4.82;;
18336;SDS011;9294;51.106;7.028;2023-02-04T13:21:49;10.65;;;5.90;;
18336;SDS011;9294;51.106;7.028;2023-02-04T13:24:17;7.78;;;5.28;;
18336;SDS011;9294;51.106;7.028;2023-02-04T13:26:45;7.78;;;5.45;;
18336;SDS011;9294;51.106;7.028;2023-02-04T13:29:12;7.15;;;5.65;;
18336;SDS011;9294;51.106;7.028;2023-02-04T13:31:38;7.68;;;5.47;;
18336;SDS011;9294;51.106;7.028;2023-02-04T13:34:05;5.93;;;5.32;;
18336;SDS011;9294;51.106;7.028;2023-02-04T13:36:32;6.20;;;5.07;;
18336;SDS011;9294;51.106;7.028;2023-02-04T13:38:58;7.00;;;5.53;;
18336;SDS011;9294;51.106;7.028;2023-02-04T13:41:27;7.82;;;4.93;;
18336;SDS011;9294;51.106;7.028;2023-02-04T13:43:53;5.10;;;4.65;;
18336;SDS011;9294;51.106;7.028;2023-02-04T13:46:21;8.38;;;5.10;;
18336;SDS011;9294;51.106;7.028;2023-02-04T13:48:48;7.15;;;5.30;;
18336;SDS011;9294;51.106;7.028;2023-02-04T13:51:15;7.32;;;5.82;;
18336;SDS011;9294;51.106;7.028;2023-02-04T13:53:42;9.48;;;5.10;;
18336;SDS011;9294;51.106;7.028;2023-02-04T13:56:09;6.32;;;5.55;;
18336;SDS011;9294;51.106;7.028;2023-02-04T13:58:37;5.78;;;4.93;;
18336;SDS011;9294;51.106;7.028;2023-02-04T14:01:07;7.22;;;5.38;;
18336;SDS011;9294;51.106;7.028;2023-02-04T14:03:34;6.53;;;5.40;;
18336;SDS011;9294;51.106;7.028;2023-02-04T14:06:01;9.52;;;5.97;;
18336;SDS011;9294;51.106;7.028;2023-02-04T14:08:28;7.57;;;5.20;;
18336;SDS011;9294;51.106;7.028;2023-02-04T14:10:55;6.20;;;5.30;;
18336;SDS011;9294;51.106;7.028;2023-02-04T14:13:21;8.32;;;4.78;;
18336;SDS011;9294;51.106;7.028;2023-02-04T14:15:50;7.72;;;5.07;;
18336;SDS011;9294;51.106;7.028;2023-02-04T14:18:17;6.35;;;5.68;;
18336;SDS011;9294;51.106;7.028;2023-02-04T14:20:44;9.93;;;5.70;;
18336;SDS011;9294;51.106;7.028;2023-02-04T14:23:11;7.82;;;5.60;;
18336;SDS011;9294;51.106;7.028;2023-02-04T14:25:38;9.73;;;5.38;;
18336;SDS011;9294;51.106;7.028;2023-02-04T14:28:05;9.50;;;5.38;;
18336;SDS011;9294;51.106;7.028;2023-02-04T14:30:32;6.75;;;5.00;;
18336;SDS011;9294;51.106;7.028;2023-02-04T14:33:00;9.40;;;4.88;;
18336;SDS011;9294;51.106;7.028;2023-02-04T14:35:27;8.00;;;4.95;;
18336;SDS011;9294;51.106;7.028;2023-02-04T14:37:53;10.30;;;5.90;;
18336;SDS011;9294;51.106;7.028;2023-02-04T14:40:20;12.18;;;5.30;;
18336;SDS011;9294;51.106;7.028;2023-02-04T14:42:47;7.70;;;5.18;;
18336;SDS011;9294;51.106;7.028;2023-02-04T14:45:14;6.25;;;5.20;;
18336;SDS011;9294;51.106;7.028;2023-02-04T14:47:40;8.50;;;5.03;;
18336;SDS011;9294;51.106;7.028;2023-02-04T14:50:10;8.38;;;4.88;;
18336;SDS011;9294;51.106;7.028;2023-02-04T14:52:38;7.88;;;4.95;;
18336;SDS011;9294;51.106;7.028;2023-02-04T14:55:05;10.75;;;6.38;;
18336;SDS011;9294;51.106;7.028;2023-02-04T14:57:33;8.00;;;4.97;;
18336;SDS011;9294;51.106;7.028;2023-02-04T15:00:00;8.02;;;5.40;;
18336;SDS011;9294;51.106;7.028;2023-02-04T15:02:27;5.90;;;4.97;;
18336;SDS011;9294;51.106;7.028;2023-02-04T15:04:54;6.10;;;5.38;;
18336;SDS011;9294;51.106;7.028;2023-02-04T15:07:22;8.48;;;5.53;;